createdAt,value
2023-03-29T00:00:25.675Z,1.94
2023-03-29T00:02:59.561Z,1.91
2023-03-29T00:05:27.976Z,1.91
2023-03-29T00:08:02.101Z,1.90
2023-03-29T00:10:34.506Z,1.89
2023-03-29T00:13:02.992Z,1.87
2023-03-29T00:15:31.644Z,1.86
2023-03-29T00:18:01.024Z,1.86
2023-03-29T00:20:29.578Z,1.87
2023-03-29T00:22:58.047Z,1.85
2023-03-29T00:25:26.644Z,1.79
2023-03-29T00:27:54.961Z,1.74
2023-03-29T00:30:23.803Z,1.73
2023-03-29T00:32:52.532Z,1.73
2023-03-29T00:35:23.726Z,1.73
2023-03-29T00:37:53.190Z,1.74
2023-03-29T00:40:49.412Z,1.75
2023-03-29T00:43:18.296Z,1.77
2023-03-29T00:45:46.645Z,1.77
2023-03-29T00:48:27.229Z,1.77
2023-03-29T00:51:04.208Z,1.74
2023-03-29T00:53:39.411Z,1.74
2023-03-29T00:56:35.437Z,1.73
2023-03-29T00:59:10.034Z,1.68
2023-03-29T01:01:48.356Z,1.61
2023-03-29T01:04:29.657Z,1.57
2023-03-29T01:07:06.606Z,1.54
2023-03-29T01:09:38.255Z,1.51
2023-03-29T01:12:13.670Z,1.51
2023-03-29T01:14:49.599Z,1.50
2023-03-29T01:17:22.066Z,1.49
2023-03-29T01:19:59.143Z,1.46
2023-03-29T01:22:38.956Z,1.44
2023-03-29T01:25:43.685Z,1.43
2023-03-29T01:28:15.022Z,1.41
2023-03-29T01:30:48.995Z,1.38
2023-03-29T01:33:25.892Z,1.34
2023-03-29T01:36:04.846Z,1.32
2023-03-29T01:38:48.715Z,1.31
2023-03-29T01:41:18.216Z,1.27
2023-03-29T01:44:07.580Z,1.25
2023-03-29T01:46:40.557Z,1.22
2023-03-29T01:49:22.574Z,1.18
2023-03-29T01:52:22.137Z,1.15
2023-03-29T01:54:58.709Z,1.13
2023-03-29T01:57:31.315Z,1.11
2023-03-29T01:59:59.964Z,1.08
2023-03-29T02:02:35.724Z,1.05
2023-03-29T02:05:32.957Z,1.04
2023-03-29T02:08:07.223Z,1.04
2023-03-29T02:10:35.836Z,1.04
2023-03-29T02:13:54.678Z,1.01
2023-03-29T02:16:23.088Z,0.99
2023-03-29T02:18:54.412Z,0.97
2023-03-29T02:21:29.408Z,0.95
2023-03-29T02:23:58.309Z,0.95
2023-03-29T02:26:29.424Z,0.94
2023-03-29T02:28:57.894Z,0.93
2023-03-29T02:31:58.158Z,0.93
2023-03-29T02:34:58.927Z,0.91
2023-03-29T02:37:30.489Z,0.90
2023-03-29T02:39:59.765Z,0.90
2023-03-29T02:42:28.464Z,0.88
2023-03-29T02:45:02.117Z,0.87
2023-03-29T02:47:39.873Z,0.85
2023-03-29T02:50:08.783Z,0.84
2023-03-29T02:52:53.499Z,0.81
2023-03-29T02:55:23.004Z,0.77
2023-03-29T02:57:55.391Z,0.74
2023-03-29T03:00:24.221Z,0.73
2023-03-29T03:02:52.866Z,0.71
2023-03-29T03:05:33.826Z,0.71
2023-03-29T03:08:27.530Z,0.68
2023-03-29T03:10:56.903Z,0.67
2023-03-29T03:13:27.172Z,0.67
2023-03-29T03:15:56.294Z,0.66
2023-03-29T03:18:24.703Z,0.64
2023-03-29T03:21:02.207Z,0.60
2023-03-29T03:23:30.867Z,0.58
2023-03-29T03:26:00.623Z,0.56
2023-03-29T03:28:32.508Z,0.56
2023-03-29T03:31:01.534Z,0.56
2023-03-29T03:33:49.171Z,0.56
2023-03-29T03:36:44.620Z,0.54
2023-03-29T03:39:13.629Z,0.51
2023-03-29T03:41:42.085Z,0.50
2023-03-29T03:44:14.162Z,0.51
2023-03-29T03:47:09.704Z,0.50
2023-03-29T03:49:42.336Z,0.49
2023-03-29T03:52:11.040Z,0.51
2023-03-29T03:54:39.788Z,0.52
2023-03-29T03:57:33.258Z,0.51
2023-03-29T04:00:01.639Z,0.50
2023-03-29T04:02:41.968Z,0.48
2023-03-29T04:05:39.400Z,0.48
2023-03-29T04:08:34.507Z,0.47
2023-03-29T04:11:18.226Z,0.49
2023-03-29T04:13:46.843Z,0.51
2023-03-29T04:16:35.953Z,0.51
2023-03-29T04:19:42.125Z,0.51
2023-03-29T04:22:13.287Z,0.50
2023-03-29T04:24:41.569Z,0.49
2023-03-29T04:27:34.707Z,0.47
2023-03-29T04:30:11.042Z,0.48
2023-03-29T04:33:01.525Z,0.48
2023-03-29T04:35:30.935Z,0.48
2023-03-29T04:38:00.192Z,0.48
2023-03-29T04:40:29.629Z,0.48
2023-03-29T04:43:09.036Z,0.50
2023-03-29T04:46:07.524Z,0.53
2023-03-29T04:49:00.678Z,0.54
2023-03-29T04:51:37.416Z,0.53
2023-03-29T04:54:53.445Z,0.58
2023-03-29T04:57:27.292Z,0.61
2023-03-29T05:00:17.112Z,0.67
2023-03-29T05:03:14.864Z,0.70
2023-03-29T05:06:07.239Z,0.71
2023-03-29T05:08:39.378Z,0.68
2023-03-29T05:11:51.933Z,0.62
2023-03-29T05:14:52.886Z,0.57
2023-03-29T05:17:49.076Z,0.53
2023-03-29T05:20:45.996Z,0.53
2023-03-29T05:24:14.243Z,0.56
2023-03-29T05:27:35.941Z,0.56
2023-03-29T05:30:09.741Z,0.58
2023-03-29T05:32:54.247Z,0.63
2023-03-29T05:35:29.432Z,0.72
2023-03-29T05:38:24.264Z,0.84
2023-03-29T05:40:53.879Z,0.92
2023-03-29T05:43:30.062Z,0.98
2023-03-29T05:45:58.539Z,1.02
2023-03-29T05:48:31.249Z,1.07
2023-03-29T05:50:59.628Z,1.15
2023-03-29T05:53:32.595Z,1.20
2023-03-29T05:56:02.382Z,1.22
2023-03-29T05:58:31.550Z,1.23
2023-03-29T06:01:52.197Z,1.26
2023-03-29T06:04:22.577Z,1.31
2023-03-29T06:07:05.721Z,1.37
2023-03-29T06:09:34.444Z,1.41
2023-03-29T06:12:08.016Z,1.45
2023-03-29T06:14:43.689Z,1.52
2023-03-29T06:17:33.950Z,1.57
2023-03-29T06:20:09.269Z,1.61
2023-03-29T06:22:39.002Z,1.61
2023-03-29T06:25:35.687Z,1.59
2023-03-29T06:28:04.335Z,1.55
2023-03-29T06:30:34.051Z,1.51
2023-03-29T06:33:10.745Z,1.49
2023-03-29T06:36:14.274Z,1.51
2023-03-29T06:38:45.849Z,1.57
2023-03-29T06:41:34.702Z,1.71
2023-03-29T06:44:12.141Z,1.83
2023-03-29T06:47:19.196Z,1.93
2023-03-29T06:49:47.652Z,1.95
2023-03-29T06:52:42.196Z,1.96
2023-03-29T06:55:12.124Z,1.95
2023-03-29T06:57:44.247Z,1.93
2023-03-29T07:00:18.675Z,1.89
2023-03-29T07:03:06.888Z,1.87
2023-03-29T07:05:41.252Z,1.90
2023-03-29T07:08:14.084Z,1.98
2023-03-29T07:11:00.241Z,2.08
2023-03-29T07:13:49.360Z,2.16
2023-03-29T07:17:15.074Z,2.26
2023-03-29T07:19:45.391Z,2.48
2023-03-29T07:22:32.888Z,2.61
2023-03-29T07:25:02.729Z,2.68
2023-03-29T07:27:31.800Z,2.75
2023-03-29T07:30:01.529Z,2.81
2023-03-29T07:32:32.168Z,2.82
2023-03-29T07:35:15.190Z,2.81
2023-03-29T07:38:04.256Z,2.72
2023-03-29T07:40:39.945Z,2.61
2023-03-29T07:43:29.321Z,2.43
2023-03-29T07:46:05.030Z,2.22
2023-03-29T07:48:42.311Z,2.13
2023-03-29T07:51:12.561Z,2.09
2023-03-29T07:53:50.144Z,2.04
2023-03-29T07:56:55.605Z,1.96
2023-03-29T07:59:40.308Z,1.95
2023-03-29T08:02:11.953Z,1.94
2023-03-29T08:04:42.817Z,1.92
2023-03-29T08:07:46.111Z,1.91
2023-03-29T08:10:22.177Z,1.95
2023-03-29T08:12:56.965Z,2.09
2023-03-29T08:18:48.265Z,2.33
2023-03-29T08:22:06.522Z,2.43
2023-03-29T08:32:39.584Z,2.24
2023-03-29T08:35:34.580Z,2.04
2023-03-29T08:38:14.489Z,1.81
2023-03-29T08:40:47.620Z,1.63
2023-03-29T08:43:40.142Z,1.49
2023-03-29T08:46:35.408Z,1.53
2023-03-29T08:49:27.529Z,1.54
2023-03-29T08:52:00.049Z,1.51
2023-03-29T08:55:05.906Z,1.48
2023-03-29T08:57:57.934Z,1.41
2023-03-29T09:04:06.377Z,1.46
2023-03-29T09:07:17.280Z,1.54
2023-03-29T09:10:40.039Z,1.62
2023-03-29T09:13:14.881Z,1.63
2023-03-29T09:15:53.230Z,1.67
2023-03-29T09:19:23.372Z,1.67
2023-03-29T09:22:42.972Z,1.73
2023-03-29T09:25:52.657Z,1.84
2023-03-29T09:28:39.420Z,1.94
2023-03-29T09:31:39.335Z,2.00
2023-03-29T09:34:15.875Z,2.05
2023-03-29T09:37:32.963Z,2.07
2023-03-29T09:43:44.206Z,1.87
2023-03-29T09:46:20.774Z,1.79
2023-03-29T09:48:49.291Z,1.67
2023-03-29T09:52:07.629Z,1.54
2023-03-29T09:54:48.726Z,1.46
2023-03-29T09:58:23.148Z,1.38
2023-03-29T10:01:17.746Z,1.24
2023-03-29T10:03:49.908Z,1.16
2023-03-29T10:06:19.420Z,1.09
2023-03-29T10:08:55.968Z,1.03
2023-03-29T10:11:31.749Z,1.01
2023-03-29T10:14:05.497Z,1.01
2023-03-29T10:16:37.255Z,1.05
2023-03-29T10:19:39.405Z,1.06
2023-03-29T10:22:41.851Z,1.10
2023-03-29T10:25:42.147Z,1.17
2023-03-29T10:28:17.576Z,1.17
2023-03-29T10:30:50.038Z,1.18
2023-03-29T10:33:21.294Z,1.17
2023-03-29T10:35:49.636Z,1.12
2023-03-29T10:38:19.858Z,1.07
2023-03-29T10:41:39.260Z,1.01
2023-03-29T10:44:36.825Z,0.94
2023-03-29T10:47:20.550Z,0.89
2023-03-29T10:49:57.254Z,0.86
2023-03-29T10:52:26.018Z,0.84
2023-03-29T10:54:55.326Z,0.80
2023-03-29T10:57:58.547Z,0.78
2023-03-29T11:01:22.442Z,0.76
2023-03-29T11:04:36.859Z,0.77
2023-03-29T11:07:56.465Z,0.80
2023-03-29T11:10:31.580Z,0.81
2023-03-29T11:13:22.317Z,0.79
2023-03-29T11:16:25.787Z,0.82
2023-03-29T11:18:58.617Z,0.85
2023-03-29T11:22:43.782Z,0.90
2023-03-29T11:29:22.687Z,1.03
2023-03-29T11:32:23.737Z,1.04
2023-03-29T11:35:31.532Z,1.09
2023-03-29T11:38:59.807Z,1.18
2023-03-29T11:41:35.826Z,1.21
2023-03-29T11:44:30.515Z,1.18
2023-03-29T11:47:20.367Z,1.18
2023-03-29T11:49:57.685Z,1.16
2023-03-29T11:52:33.973Z,1.14
2023-03-29T11:55:08.335Z,1.15
2023-03-29T11:57:54.104Z,1.17
2023-03-29T12:00:29.147Z,1.20
2023-03-29T12:03:38.961Z,1.22
2023-03-29T12:06:13.267Z,1.15
2023-03-29T12:09:04.131Z,1.12
2023-03-29T12:11:48.877Z,1.12
2023-03-29T12:14:18.667Z,1.16
2023-03-29T12:17:01.455Z,1.21
2023-03-29T12:19:32.426Z,1.25
2023-03-29T12:22:00.752Z,1.29
2023-03-29T12:24:31.140Z,1.28
2023-03-29T12:27:20.691Z,1.26
2023-03-29T12:30:46.907Z,1.21
2023-03-29T12:33:39.988Z,1.15
2023-03-29T12:36:46.008Z,1.13
2023-03-29T12:40:18.178Z,1.12
2023-03-29T12:43:07.223Z,1.13
2023-03-29T12:46:31.113Z,1.13
2023-03-29T12:49:10.201Z,1.13
2023-03-29T12:51:40.217Z,1.11
2023-03-29T12:54:33.301Z,1.07
2023-03-29T12:57:03.654Z,1.04
2023-03-29T12:59:39.988Z,1.04
2023-03-29T13:02:35.223Z,1.08
2023-03-29T13:05:05.734Z,1.10
2023-03-29T13:07:46.726Z,1.05
2023-03-29T13:10:38.228Z,1.00
2023-03-29T13:13:16.462Z,0.97
2023-03-29T13:15:46.292Z,0.95
2023-03-29T13:19:02.534Z,0.96
2023-03-29T13:21:53.281Z,0.93
2023-03-29T13:27:44.199Z,0.92
2023-03-29T13:30:56.033Z,0.93
2023-03-29T13:33:30.203Z,0.93
2023-03-29T13:36:18.674Z,0.90
2023-03-29T13:39:21.762Z,0.83
2023-03-29T13:41:52.124Z,0.81
2023-03-29T13:44:30.042Z,0.79
2023-03-29T13:47:27.947Z,0.75
2023-03-29T13:50:00.209Z,0.71
2023-03-29T13:53:02.571Z,0.69
2023-03-29T13:55:56.481Z,0.69
2023-03-29T13:58:36.383Z,0.67
2023-03-29T14:01:18.004Z,0.66
2023-03-29T14:03:48.868Z,0.67
2023-03-29T14:07:08.603Z,0.70
2023-03-29T14:09:41.572Z,0.72
2023-03-29T14:12:14.697Z,0.74
2023-03-29T14:14:57.782Z,0.72
2023-03-29T14:17:33.982Z,0.69
2023-03-29T14:20:02.296Z,0.66
2023-03-29T14:22:37.976Z,0.63
2023-03-29T14:25:07.880Z,0.62
2023-03-29T14:27:38.072Z,0.61
2023-03-29T14:30:22.565Z,0.62
2023-03-29T14:32:52.623Z,0.63
2023-03-29T14:35:32.930Z,0.60
2023-03-29T14:38:01.792Z,0.59
2023-03-29T14:40:30.212Z,0.58
2023-03-29T14:42:59.759Z,0.56
2023-03-29T14:45:54.540Z,0.52
2023-03-29T14:48:22.841Z,0.50
2023-03-29T14:51:16.604Z,0.47
2023-03-29T14:54:11.627Z,0.45
2023-03-29T14:56:39.909Z,0.44
2023-03-29T14:59:27.593Z,0.43
2023-03-29T15:01:56.838Z,0.41
2023-03-29T15:07:56.363Z,0.40
2023-03-29T15:11:02.102Z,0.38
2023-03-29T15:13:30.631Z,0.38
2023-03-29T15:16:01.867Z,0.37
2023-03-29T15:18:36.443Z,0.36
2023-03-29T15:21:34.846Z,0.33
2023-03-29T15:24:04.201Z,0.31
2023-03-29T15:26:36.946Z,0.30
2023-03-29T15:29:12.637Z,0.28
2023-03-29T15:31:42.127Z,0.27
2023-03-29T15:34:14.289Z,0.25
2023-03-29T15:36:47.619Z,0.26
2023-03-29T15:39:17.350Z,0.25
2023-03-29T15:41:46.925Z,0.24
2023-03-29T15:44:27.843Z,0.23
2023-03-29T15:46:57.961Z,0.23
2023-03-29T15:49:26.655Z,0.22
2023-03-29T15:52:45.944Z,0.22
2023-03-29T15:55:14.743Z,0.21
2023-03-29T15:57:46.690Z,0.20
2023-03-29T16:01:12.557Z,0.19
2023-03-29T16:06:37.562Z,0.19
2023-03-29T16:09:07.265Z,0.18
2023-03-29T16:11:35.832Z,0.17
2023-03-29T16:14:52.773Z,0.18
2023-03-29T16:17:46.604Z,0.18
2023-03-29T16:20:20.267Z,0.18
2023-03-29T16:22:49.156Z,0.17
2023-03-29T16:25:43.764Z,0.16
2023-03-29T16:28:39.617Z,0.13
2023-03-29T16:34:04.942Z,0.14
2023-03-29T16:36:38.882Z,0.14
2023-03-29T16:39:16.329Z,0.15
2023-03-29T16:41:46.890Z,0.15
2023-03-29T16:44:22.480Z,0.15
2023-03-29T16:47:51.189Z,0.14
2023-03-29T16:53:40.761Z,0.15
2023-03-29T16:56:14.857Z,0.15
2023-03-29T17:03:17.240Z,0.14
2023-03-29T17:06:39.726Z,0.13
2023-03-29T17:09:08.228Z,0.13
2023-03-29T17:14:14.612Z,0.14
2023-03-29T17:17:35.439Z,0.12
2023-03-29T17:20:07.142Z,0.11
2023-03-29T17:22:36.285Z,0.10
2023-03-29T17:25:10.281Z,0.10
2023-03-29T17:27:40.932Z,0.11
2023-03-29T17:30:11.623Z,0.10
2023-03-29T17:33:09.646Z,0.09
2023-03-29T17:35:44.086Z,0.08
2023-03-29T17:38:13.546Z,0.07
2023-03-29T17:40:42.543Z,0.07
2023-03-29T17:43:12.626Z,0.06
2023-03-29T17:45:41.811Z,0.06
2023-03-29T17:48:10.207Z,0.06
2023-03-29T17:50:41.328Z,0.07
2023-03-29T17:53:10.514Z,0.08
2023-03-29T17:56:30.845Z,0.08
2023-03-29T17:59:05.332Z,0.08
2023-03-29T18:01:38.949Z,0.08
2023-03-29T18:04:08.547Z,0.08
2023-03-29T18:06:37.275Z,0.07
2023-03-29T18:09:13.600Z,0.06
2023-03-29T18:11:43.302Z,0.05
2023-03-29T18:14:37.841Z,0.05
2023-03-29T18:17:13.168Z,0.06
2023-03-29T18:19:42.128Z,0.06
2023-03-29T18:22:10.902Z,0.07
2023-03-29T18:24:41.365Z,0.06
2023-03-29T18:27:16.084Z,0.07
2023-03-29T18:29:50.125Z,0.07
2023-03-29T18:32:45.031Z,0.05
2023-03-29T18:35:13.680Z,0.04
2023-03-29T18:37:44.136Z,0.04
2023-03-29T18:40:41.980Z,0.03
2023-03-29T18:43:13.671Z,0.03
2023-03-29T18:45:45.305Z,0.02
2023-03-29T18:48:14.103Z,0.01
2023-03-29T18:50:45.344Z,0.01
2023-03-29T18:53:17.373Z,0.00
2023-03-29T18:55:47.058Z,-0.01
2023-03-29T18:58:15.811Z,-0.02
2023-03-29T19:00:45.996Z,-0.03
2023-03-29T19:03:21.266Z,-0.03
2023-03-29T19:06:41.393Z,-0.03
2023-03-29T19:09:12.161Z,-0.03
2023-03-29T19:11:41.402Z,-0.04
2023-03-29T19:14:10.055Z,-0.03
2023-03-29T19:16:40.887Z,-0.03
2023-03-29T19:19:11.391Z,-0.03
2023-03-29T19:22:05.675Z,-0.04
2023-03-29T19:24:34.585Z,-0.04
2023-03-29T19:27:06.847Z,-0.05
2023-03-29T19:29:36.991Z,-0.05
2023-03-29T19:32:08.856Z,-0.06
2023-03-29T19:35:27.570Z,-0.06
2023-03-29T19:37:56.350Z,-0.07
2023-03-29T19:41:41.991Z,-0.08
2023-03-29T19:44:10.509Z,-0.07
2023-03-29T19:47:06.023Z,-0.09
2023-03-29T19:49:36.806Z,-0.09
2023-03-29T19:55:49.946Z,-0.09
2023-03-29T19:58:19.928Z,-0.10
2023-03-29T20:00:48.269Z,-0.09
2023-03-29T20:03:43.859Z,-0.10
2023-03-29T20:06:37.698Z,-0.10
2023-03-29T20:09:07.882Z,-0.11
2023-03-29T20:11:46.996Z,-0.10
2023-03-29T20:14:15.650Z,-0.11
2023-03-29T20:16:47.105Z,-0.13
2023-03-29T20:19:17.499Z,-0.13
2023-03-29T20:21:46.552Z,-0.13
2023-03-29T20:24:18.363Z,-0.13
2023-03-29T20:26:46.821Z,-0.13
2023-03-29T20:29:43.036Z,-0.13
2023-03-29T20:32:11.500Z,-0.12
2023-03-29T20:34:39.943Z,-0.13
2023-03-29T20:37:08.313Z,-0.13
2023-03-29T20:39:45.417Z,-0.13
2023-03-29T20:42:14.462Z,-0.12
2023-03-29T20:44:50.677Z,-0.13
2023-03-29T20:47:19.565Z,-0.13
2023-03-29T20:49:47.805Z,-0.13
2023-03-29T20:52:16.828Z,-0.13
2023-03-29T20:54:46.103Z,-0.13
2023-03-29T20:57:45.441Z,-0.14
2023-03-29T21:00:38.642Z,-0.14
2023-03-29T21:03:08.825Z,-0.14
2023-03-29T21:05:39.077Z,-0.14
2023-03-29T21:08:11.233Z,-0.15
2023-03-29T21:11:30.121Z,-0.15
2023-03-29T21:14:25.565Z,-0.17
2023-03-29T21:17:43.574Z,-0.19
2023-03-29T21:20:13.483Z,-0.19
2023-03-29T21:22:43.201Z,-0.20
2023-03-29T21:26:02.111Z,-0.19
2023-03-29T21:28:30.642Z,-0.20
2023-03-29T21:30:59.337Z,-0.21
2023-03-29T21:33:31.378Z,-0.21
2023-03-29T21:36:00.948Z,-0.22
2023-03-29T21:38:30.217Z,-0.22
2023-03-29T21:41:24.273Z,-0.22
2023-03-29T21:43:56.736Z,-0.23
2023-03-29T21:46:26.032Z,-0.24
2023-03-29T21:49:20.118Z,-0.24
2023-03-29T21:51:49.062Z,-0.24
2023-03-29T21:54:17.340Z,-0.24
2023-03-29T21:59:40.957Z,-0.22
2023-03-29T22:02:09.461Z,-0.23
2023-03-29T22:04:38.253Z,-0.24
2023-03-29T22:07:10.912Z,-0.24
2023-03-29T22:09:42.503Z,-0.25
2023-03-29T22:12:10.888Z,-0.24
2023-03-29T22:14:39.107Z,-0.24
2023-03-29T22:17:08.173Z,-0.23
2023-03-29T22:19:40.237Z,-0.23
2023-03-29T22:22:14.114Z,-0.22
2023-03-29T22:24:42.679Z,-0.23
2023-03-29T22:27:15.700Z,-0.23
2023-03-29T22:30:35.337Z,-0.23
2023-03-29T22:33:53.927Z,-0.26
2023-03-29T22:36:51.979Z,-0.26
2023-03-29T22:39:20.666Z,-0.27
2023-03-29T22:42:14.075Z,-0.28
2023-03-29T22:44:42.654Z,-0.28
2023-03-29T22:47:11.185Z,-0.29
2023-03-29T22:49:39.750Z,-0.29
2023-03-29T22:52:08.019Z,-0.30
2023-03-29T22:55:01.146Z,-0.30
2023-03-29T22:57:31.737Z,-0.30
2023-03-29T23:00:50.219Z,-0.29
2023-03-29T23:03:23.580Z,-0.31
2023-03-29T23:05:53.206Z,-0.32
2023-03-29T23:08:48.145Z,-0.32
2023-03-29T23:11:46.507Z,-0.32
2023-03-29T23:14:15.098Z,-0.32
2023-03-29T23:16:43.281Z,-0.33
2023-03-29T23:19:12.806Z,-0.35
2023-03-29T23:21:42.057Z,-0.36
2023-03-29T23:24:19.166Z,-0.37
2023-03-29T23:26:50.386Z,-0.38
2023-03-29T23:29:18.570Z,-0.38
2023-03-29T23:31:47.897Z,-0.39
2023-03-29T23:34:16.195Z,-0.38
2023-03-29T23:36:47.905Z,-0.37
2023-03-29T23:39:16.474Z,-0.36
2023-03-29T23:41:44.717Z,-0.36
2023-03-29T23:44:23.563Z,-0.35
2023-03-29T23:46:52.183Z,-0.36
2023-03-29T23:49:23.128Z,-0.36
2023-03-29T23:51:51.754Z,-0.37
2023-03-29T23:54:20.228Z,-0.36
2023-03-29T23:57:25.307Z,-0.37
2023-03-29T23:59:56.051Z,-0.36
